Irvine, PA (16369)

6:16 AM EDT on August 30, 2014 (GMT -0400)
Brokenstraw Airport | Change Station
CLOSE
Current Station
Personal Weather Station
Location: Pittsfield, PA
Elevation: 1235 ft
Nearby Weather Stations

Elev 1235 ft 41.83 °N, 79.36 °W | Updated 6 seconds ago

Clear
Clear
51.8 °F
Feels Like 51.8 °F
N
0.0
Wind Variable Wind from SSW
Gusts 1.0 mph

Today
High -- | Low -- °F
--% Chance of Precip.
Yesterday
High -- | Low -- °F
Precip. -- in
6:40 AM 7:53 PM
Waxing Crescent, 21% visible
Pressure 30.13 in
Visibility 10.0 miles
Clouds Clear
Dew Point 51 °F
Humidity 98%
Rainfall 0.00 in
Snow Depth Not available.
UV 0 out of 12
Pollen 9.90 out of 12
Air Quality Not available.
Flu Activity Not available.
METAR KJHW 300955Z AUTO 17009KT 10SM CLR 14/12 A3013 RMK AO1

More Conditions Fewer Conditions

Pressure 30.13 in
Visibility 10.0 miles
Clouds Clear
Dew Point 51 °F
Humidity 98%
Rainfall 0.00 in
Snow Depth Not available.
UV 0 out of 12
Pollen 9.90 out of 12
Air Quality Not available.
Flu Activity Not available.
METAR KJHW 300955Z AUTO 17009KT 10SM CLR 14/12 A3013 RMK AO1

More Conditions Fewer Conditions

10-Day Weather Forecast

Almanac

Astronomy

Aug. 30, 2014 Rise Set
Actual Time 6:40 AM EDT 7:53 PM EDT
Civil Twilight 6:11 AM EDT 8:22 PM EDT
Nautical Twilight 5:36 AM EDT 8:56 PM EDT
Astronomical Twilight 5:00 AM EDT 9:32 PM EDT
Moon 11:31 AM EDT 10:21 PM EDT
Length of Visible Light 14h 10m
Length of Day
13h 13m
Tomorrow will be 2m 41s shorter.
Waxing Crescent, 21% of the Moon is Illuminated
Today
Waxing Crescent
Sep 2
First Quarter
Sep 8
Full
Sep 15
Last Quarter
Sep 24
New

Today's Extremes

State Highs State Lows

Community

WunderPhotos

Upload Photos

1,748,481 photos uploaded!

Nearby

Snow Depth

Station Depth Elevation
No new snow has been reported.

Earthquake Activity

City Distance Mag. Time & Date
No recent earthquake activity has been reported nearby.
Minimum magnitude displayed is 2.5.

Coastal Water Temperatures

Place Temperature
No Stations Reporting

Nearby Weather Stations